ADDS TAF Board (Experimental) INFO Settings
IDs: Format: Expanded Condensed

KIAH - Houston/Bush Intl, TX, US

Issued at 2321 UTC 10 Feb 2016
Updated at: 0222 UTC 11 Feb 2016
Time0153Z 11/03Z 11/04Z 11/05Z 11/06Z 11/07Z 11/08Z 11/09Z 11/10Z 11/11Z 11/12Z 11/13Z 11/14Z 11/15Z
Type OBS PRVL PRVL PRVL PRVL PRVL PRVL PRVL PRVL PRVL PRVL PRVL PRVL PRVL
VIS 10 >6 >6 >6 >6 >6 >6 >6 >6 >6 >6 >6 >6 >6
CIG -- -- -- -- -- -- -- -- -- -- -- -- -- --
Cover CLR SKC SKC SKC SKC SKC SKC SKC SKC SKC SKC SKC SKC SKC
FltCat VFR VFR VFR VFR VFR VFR VFR VFR VFR VFR VFR VFR VFR VFR
WX -- -- -- -- -- -- -- -- -- -- -- -- -- --
WDir 190 220 220 220 220 220 220 220 220 220 220 220 220 220
WSpd 7 6 6 6 6 6 6 6 6 6 6 6 6 6
WGst -- -- -- -- -- -- -- -- -- -- -- -- -- --
R08/26
XWnd -7 -5 -5 -5 -5 -5 -5 -5 -5 -5 -5 -5 -5 -5
HWnd -1 -4 -4 -4 -4 -4 -4 -4 -4 -4 -4 -4 -4 -4
R09/27
XWnd -7 -5 -5 -5 -5 -5 -5 -5 -5 -5 -5 -5 -5 -5
HWnd -1 -4 -4 -4 -4 -4 -4 -4 -4 -4 -4 -4 -4 -4
R15/33
XWnd -4 -6 -6 -6 -6 -6 -6 -6 -6 -6 -6 -6 -6 -6
HWnd 6 2 2 2 2 2 2 2 2 2 2 2 2 2

NOTE: TEMPO conditions in [brackets]. Keep in mind TEMPO conditions might be better (lower impact) than prevailing conditions.

Raw TAF
KIAH 102321Z 1100/1206 22006KT P6SM SKC
  FM111700 22012KT P6SM SKC
  FM120100 19005KT P6SM FEW300


Raw METAR
KIAH 110153Z 19007KT 10SM CLR 15/04 A3023 RMK AO2 SLP237 T01500044
KIAH 110053Z 17008KT 10SM CLR 16/03 A3024 RMK AO2 SLP240 T01610033
KIAH 102353Z 17006KT 10SM CLR 18/03 A3025 RMK AO2 SLP243 T01830028 10217 20167 56008

METAR Board
Radar Display
Forecast Discussion

TAF Board Legend

Potential Impact
Threat None Slight Moderate High
Visibility (sm) ≥5.1 5.1>X≥3 3>X≥1 <1
Ceiling (100 ft) ≥30.1 30.1>X≥10 10>X≥5 <5
Wind Speed (kt) <10 10≤X<20 20≤X<30 ≥30
Wind Gust (kt) <15 15≤X<25 25≤X<35 ≥35
Weather No Wx Reported VCTS,-TS,-FZRA,SN TS,FZRA +TS,+FZRA,+SN